createdAt,value
2023-01-01T00:00:25.760Z,133.82
2023-01-01T00:31:22.289Z,58.13
2023-01-01T00:32:24.679Z,59.90
2023-01-01T00:33:27.020Z,50.85
2023-01-01T00:34:29.309Z,47.95
2023-01-01T00:35:31.602Z,47.80
2023-01-01T00:36:33.893Z,47.90
2023-01-01T00:37:37.703Z,48.92
2023-01-01T00:38:44.781Z,46.05
2023-01-01T00:39:47.289Z,76.10
2023-01-01T00:40:49.765Z,107.30
2023-01-01T00:41:52.020Z,81.50
2023-01-01T00:42:54.292Z,62.97
2023-01-01T00:43:56.552Z,69.70
2023-01-01T00:44:58.805Z,60.85
2023-01-01T00:46:01.146Z,53.05
2023-01-01T00:47:03.601Z,53.15
2023-01-01T00:48:06.095Z,54.78
2023-01-01T00:49:08.364Z,45.70
2023-01-01T00:50:10.668Z,44.83
2023-01-01T00:51:13.284Z,45.05
2023-01-01T00:52:15.498Z,45.58
2023-01-01T00:53:18.139Z,44.55
2023-01-01T00:54:20.348Z,44.90
2023-01-01T00:55:22.553Z,64.78
2023-01-01T00:56:24.875Z,39.55
2023-01-01T00:57:27.112Z,56.10
2023-01-01T00:58:29.376Z,42.97
2023-01-01T00:59:31.662Z,142.00
2023-01-01T01:00:34.224Z,137.05
2023-01-01T01:01:37.029Z,163.30
2023-01-01T01:02:39.518Z,79.13
2023-01-01T01:03:41.877Z,59.13
2023-01-01T01:04:44.097Z,63.20
2023-01-01T01:05:46.312Z,54.03
2023-01-01T01:06:48.802Z,45.92
2023-01-01T01:07:51.068Z,42.35
2023-01-01T01:08:53.459Z,42.65
2023-01-01T01:09:55.860Z,37.45
2023-01-01T01:11:12.758Z,34.20
2023-01-01T01:12:18.124Z,33.05
2023-01-01T01:13:21.792Z,34.35
2023-01-01T01:14:24.070Z,36.42
2023-01-01T01:15:26.313Z,34.58
2023-01-01T01:16:31.305Z,196.05
2023-01-01T01:17:34.260Z,338.58
2023-01-01T01:18:37.146Z,151.95
2023-01-01T01:19:39.359Z,117.07
2023-01-01T01:20:49.895Z,389.10
2023-01-01T01:21:52.278Z,399.00
2023-01-01T01:22:54.609Z,190.35
2023-01-01T01:24:01.510Z,107.60
2023-01-01T01:25:05.714Z,54.30
2023-01-01T01:26:25.585Z,121.85
2023-01-01T01:27:27.848Z,146.52
2023-01-01T01:28:31.056Z,128.27
2023-01-01T01:29:33.428Z,100.72
2023-01-01T01:30:38.139Z,102.40
2023-01-01T01:31:40.512Z,83.88
2023-01-01T01:32:42.811Z,63.00
2023-01-01T01:33:46.386Z,65.80
2023-01-01T01:34:48.975Z,39.55
2023-01-01T01:35:54.918Z,34.78
2023-01-01T01:36:57.171Z,30.63
2023-01-01T01:37:59.522Z,46.80
2023-01-01T01:39:01.790Z,38.15
2023-01-01T01:40:04.727Z,32.83
2023-01-01T01:41:07.632Z,29.20
2023-01-01T01:42:17.626Z,27.50
2023-01-01T01:43:23.130Z,26.38
2023-01-01T01:44:51.218Z,36.67
2023-01-01T01:45:58.802Z,25.33
2023-01-01T01:47:02.559Z,25.63
2023-01-01T01:48:04.965Z,25.02
2023-01-01T01:49:21.454Z,76.38
2023-01-01T01:50:27.725Z,88.03
2023-01-01T01:51:38.253Z,76.43
2023-01-01T01:52:47.700Z,77.80
2023-01-01T01:53:54.451Z,70.70
2023-01-01T01:54:57.677Z,70.55
2023-01-01T01:56:03.051Z,104.53
2023-01-01T01:57:09.355Z,104.78
2023-01-01T01:58:14.800Z,121.13
2023-01-01T01:59:20.264Z,116.22
2023-01-01T02:01:37.913Z,67.72
2023-01-01T02:03:18.915Z,57.10
2023-01-01T02:04:21.829Z,48.95
2023-01-01T02:05:25.320Z,42.17
2023-01-01T02:06:29.175Z,34.90
2023-01-01T02:07:34.229Z,51.58
2023-01-01T02:08:37.231Z,40.15
2023-01-01T02:09:39.589Z,34.75
2023-01-01T02:10:42.421Z,27.17
2023-01-01T02:11:44.643Z,23.50
2023-01-01T02:12:47.251Z,35.05
2023-01-01T02:13:50.588Z,38.05
2023-01-01T02:14:52.828Z,40.40
2023-01-01T02:15:59.140Z,34.95
2023-01-01T02:17:27.384Z,22.48
2023-01-01T02:18:37.769Z,37.38
2023-01-01T02:19:58.995Z,30.42
2023-01-01T02:21:11.319Z,28.63
2023-01-01T02:22:36.750Z,35.50
2023-01-01T02:23:48.037Z,41.53
2023-01-01T02:25:11.408Z,34.17
2023-01-01T02:26:38.762Z,42.47
2023-01-01T02:28:22.033Z,57.95
2023-01-01T02:29:33.291Z,48.03
2023-01-01T02:30:39.120Z,42.92
2023-01-01T02:31:54.316Z,35.38
2023-01-01T02:33:02.806Z,38.53
2023-01-01T02:34:09.942Z,27.42
2023-01-01T02:35:38.642Z,26.73
2023-01-01T02:36:48.845Z,24.67
2023-01-01T02:37:56.433Z,23.55
2023-01-01T02:39:01.777Z,31.05
2023-01-01T02:40:04.378Z,29.17
2023-01-01T02:41:35.154Z,25.15
2023-01-01T02:42:37.614Z,22.85
2023-01-01T02:43:40.384Z,21.95
2023-01-01T02:44:46.896Z,29.55
2023-01-01T02:45:49.384Z,23.30
2023-01-01T02:46:51.972Z,22.92
2023-01-01T02:47:54.208Z,17.73
2023-01-01T02:48:56.525Z,20.23
2023-01-01T02:50:08.363Z,25.85
2023-01-01T02:51:23.169Z,29.65
2023-01-01T02:52:49.939Z,24.15
2023-01-01T02:54:02.862Z,18.77
2023-01-01T02:55:17.406Z,16.73
2023-01-01T02:56:25.371Z,43.60
2023-01-01T02:57:38.649Z,30.00
2023-01-01T02:59:23.233Z,29.55
2023-01-01T03:00:29.445Z,30.23
2023-01-01T03:01:43.976Z,27.80
2023-01-01T03:03:11.051Z,32.03
2023-01-01T03:04:25.949Z,25.88
2023-01-01T03:06:00.764Z,20.30
2023-01-01T03:07:32.936Z,20.85
2023-01-01T03:09:09.126Z,21.95
2023-01-01T03:10:24.060Z,22.05
2023-01-01T03:11:42.579Z,25.40
2023-01-01T03:12:53.511Z,25.50
2023-01-01T03:14:07.060Z,26.45
2023-01-01T03:15:18.600Z,27.10
2023-01-01T03:16:45.548Z,23.38
2023-01-01T03:17:59.830Z,24.35
2023-01-01T03:19:26.886Z,29.45
2023-01-01T03:20:33.301Z,23.15
2023-01-01T03:21:57.931Z,25.92
2023-01-01T03:23:06.759Z,21.48
2023-01-01T03:24:15.905Z,20.88
2023-01-01T03:25:24.005Z,24.08
2023-01-01T03:26:28.100Z,23.75
2023-01-01T03:27:43.881Z,24.15
2023-01-01T03:28:58.859Z,20.58
2023-01-01T03:30:08.203Z,21.92
2023-01-01T03:31:15.098Z,24.08
2023-01-01T03:32:22.495Z,17.38
2023-01-01T03:33:50.687Z,24.50
2023-01-01T03:34:57.183Z,23.33
2023-01-01T03:36:03.951Z,18.42
2023-01-01T03:37:13.945Z,17.95
2023-01-01T03:38:40.581Z,21.13
2023-01-01T03:39:51.065Z,20.25
2023-01-01T03:41:01.203Z,21.58
2023-01-01T03:42:40.743Z,18.25
2023-01-01T03:43:49.703Z,18.00
2023-01-01T03:45:05.228Z,20.00
2023-01-01T03:46:09.961Z,21.30
2023-01-01T03:47:13.124Z,22.17
2023-01-01T03:48:15.439Z,18.33
2023-01-01T03:49:18.331Z,22.35
2023-01-01T03:50:24.165Z,15.02
2023-01-01T03:51:41.886Z,16.70
2023-01-01T03:52:57.642Z,20.55
2023-01-01T03:54:07.110Z,15.32
2023-01-01T03:55:19.615Z,15.38
2023-01-01T03:56:46.005Z,14.30
2023-01-01T03:57:53.949Z,15.93
2023-01-01T03:59:14.424Z,12.88
2023-01-01T04:00:46.677Z,16.00
2023-01-01T04:01:53.625Z,13.65
2023-01-01T04:02:57.433Z,17.27
2023-01-01T04:04:01.277Z,13.98
2023-01-01T04:05:05.142Z,21.02
2023-01-01T04:06:08.722Z,18.05
2023-01-01T04:07:15.077Z,14.48
2023-01-01T04:08:18.193Z,13.50
2023-01-01T04:09:25.575Z,12.65
2023-01-01T04:10:30.925Z,13.52
2023-01-01T04:11:53.420Z,10.50
2023-01-01T04:12:57.683Z,12.43
2023-01-01T04:13:59.908Z,15.10
2023-01-01T04:15:02.132Z,13.00
2023-01-01T04:16:04.661Z,15.43
2023-01-01T04:17:09.213Z,17.98
2023-01-01T04:18:11.635Z,19.23
2023-01-01T04:19:13.844Z,14.85
2023-01-01T04:20:16.812Z,12.45
2023-01-01T04:21:19.141Z,10.77
2023-01-01T04:22:23.276Z,12.60
2023-01-01T04:23:25.733Z,15.23
2023-01-01T04:24:28.402Z,15.70
2023-01-01T04:25:30.955Z,12.70
2023-01-01T04:26:33.146Z,14.57
2023-01-01T04:27:35.647Z,13.23
2023-01-01T04:28:37.949Z,11.75
2023-01-01T04:29:41.843Z,11.63
2023-01-01T04:31:45.817Z,15.00
2023-01-01T04:32:48.031Z,16.90
2023-01-01T04:33:53.939Z,13.85
2023-01-01T04:34:56.136Z,12.52
2023-01-01T04:36:06.793Z,14.35
2023-01-01T04:37:13.116Z,14.05
2023-01-01T04:38:16.114Z,14.00
2023-01-01T04:39:18.591Z,9.85
2023-01-01T04:40:20.859Z,8.90
2023-01-01T04:41:23.123Z,11.27
2023-01-01T04:42:25.378Z,11.85
2023-01-01T04:43:28.155Z,11.65
2023-01-01T04:44:30.414Z,10.20
2023-01-01T04:45:32.722Z,11.88
2023-01-01T04:46:35.022Z,10.63
2023-01-01T04:47:37.690Z,8.77
2023-01-01T04:48:39.931Z,10.80
2023-01-01T04:49:42.214Z,13.77
2023-01-01T04:50:44.400Z,12.52
2023-01-01T04:51:47.085Z,11.30
2023-01-01T04:52:51.285Z,12.05
2023-01-01T04:53:53.687Z,10.25
2023-01-01T04:54:56.002Z,11.68
2023-01-01T04:56:15.718Z,14.60
2023-01-01T04:57:17.967Z,10.07
2023-01-01T04:58:20.213Z,11.50
2023-01-01T04:59:22.655Z,10.80
2023-01-01T05:00:24.902Z,12.27
2023-01-01T05:01:29.031Z,10.65
2023-01-01T05:02:31.484Z,11.30
2023-01-01T05:03:33.782Z,17.42
2023-01-01T05:04:36.174Z,12.15
2023-01-01T05:05:38.415Z,11.38
2023-01-01T05:06:40.768Z,18.48
2023-01-01T05:07:43.050Z,13.60
2023-01-01T05:08:47.541Z,11.98
2023-01-01T05:09:49.913Z,11.68
2023-01-01T05:10:52.148Z,11.07
2023-01-01T05:11:55.824Z,10.88
2023-01-01T05:12:58.072Z,12.95
2023-01-01T05:14:01.170Z,9.75
2023-01-01T05:15:03.561Z,18.33
2023-01-01T05:16:07.672Z,14.35
2023-01-01T05:17:09.921Z,11.77
2023-01-01T05:18:12.164Z,12.55
2023-01-01T05:19:14.441Z,10.85
2023-01-01T05:20:16.743Z,8.82
2023-01-01T05:21:24.439Z,8.85
2023-01-01T05:22:26.687Z,13.60
2023-01-01T05:23:29.627Z,10.68
2023-01-01T05:24:36.312Z,11.10
2023-01-01T05:25:38.704Z,13.65
2023-01-01T05:26:43.488Z,16.50
2023-01-01T05:27:45.734Z,11.98
2023-01-01T05:28:48.532Z,13.40
2023-01-01T05:29:50.760Z,12.05
2023-01-01T05:30:54.089Z,10.65
2023-01-01T05:31:56.362Z,9.13
2023-01-01T05:32:58.659Z,11.50
2023-01-01T05:35:03.512Z,14.15
2023-01-01T05:36:07.750Z,9.15
2023-01-01T05:37:09.968Z,14.23
2023-01-01T05:38:12.256Z,12.40
2023-01-01T05:39:14.499Z,11.93
2023-01-01T05:40:16.742Z,9.13
2023-01-01T05:41:20.207Z,9.20
2023-01-01T05:42:22.414Z,11.07
2023-01-01T05:43:24.804Z,9.65
2023-01-01T05:44:27.051Z,10.65
2023-01-01T05:45:29.290Z,10.13
2023-01-01T05:46:32.191Z,10.02
2023-01-01T05:47:36.983Z,7.55
2023-01-01T05:48:39.310Z,9.40
2023-01-01T05:49:41.627Z,8.55
2023-01-01T05:50:43.943Z,9.82
2023-01-01T05:51:46.141Z,6.47
2023-01-01T05:52:48.487Z,10.32
2023-01-01T05:53:51.475Z,7.00
2023-01-01T05:54:53.736Z,10.15
2023-01-01T05:55:55.955Z,7.82
2023-01-01T05:56:58.625Z,9.68
2023-01-01T05:58:00.894Z,8.70
2023-01-01T05:59:03.140Z,6.65
2023-01-01T06:00:06.046Z,8.07
2023-01-01T06:01:20.847Z,7.35
2023-01-01T06:02:23.443Z,10.85
2023-01-01T06:03:25.653Z,10.60
2023-01-01T06:04:27.891Z,8.93
2023-01-01T06:05:30.174Z,11.07
2023-01-01T06:06:35.310Z,7.47
2023-01-01T06:07:37.535Z,9.10
2023-01-01T06:08:40.379Z,7.82
2023-01-01T06:09:43.019Z,10.25
2023-01-01T06:10:45.647Z,9.40
2023-01-01T06:11:48.391Z,6.30
2023-01-01T06:12:50.617Z,6.95
2023-01-01T06:13:54.372Z,8.23
2023-01-01T06:14:56.830Z,6.70
2023-01-01T06:16:01.564Z,10.52
2023-01-01T06:17:03.931Z,8.07
2023-01-01T06:18:06.149Z,12.15
2023-01-01T06:19:08.595Z,32.42
2023-01-01T06:20:11.094Z,77.90
2023-01-01T06:21:19.070Z,67.53
2023-01-01T06:22:21.316Z,40.08
2023-01-01T06:23:23.538Z,37.00
2023-01-01T06:24:25.747Z,108.40
2023-01-01T06:25:27.951Z,87.95
2023-01-01T06:26:32.589Z,77.40
2023-01-01T06:27:36.746Z,58.55
2023-01-01T06:28:39.891Z,43.80
2023-01-01T06:29:42.143Z,19.48
2023-01-01T06:30:44.429Z,15.48
2023-01-01T06:31:46.676Z,9.13
2023-01-01T06:32:48.879Z,12.55
2023-01-01T06:33:51.874Z,8.93
2023-01-01T06:34:54.098Z,9.95
2023-01-01T06:35:56.417Z,8.63
2023-01-01T06:37:04.721Z,8.48
2023-01-01T06:38:09.114Z,7.95
2023-01-01T06:39:11.334Z,6.90
2023-01-01T06:40:14.642Z,6.60
2023-01-01T06:41:19.158Z,9.20
2023-01-01T06:42:21.393Z,8.63
2023-01-01T06:43:23.707Z,8.52
2023-01-01T06:44:25.905Z,6.15
2023-01-01T06:45:28.128Z,7.38
2023-01-01T06:46:35.696Z,8.07
2023-01-01T06:47:37.965Z,7.07
2023-01-01T06:48:41.951Z,5.70
2023-01-01T06:49:44.276Z,6.35
2023-01-01T06:50:46.583Z,7.20
2023-01-01T06:51:48.831Z,9.00
2023-01-01T06:52:51.136Z,4.63
2023-01-01T06:53:53.890Z,7.10
2023-01-01T06:54:56.101Z,7.05
2023-01-01T06:55:58.471Z,5.95
2023-01-01T06:57:00.796Z,9.10
2023-01-01T06:58:03.137Z,5.60
2023-01-01T06:59:05.370Z,8.20
2023-01-01T07:00:08.313Z,8.40
2023-01-01T07:01:16.643Z,6.53
2023-01-01T07:02:19.182Z,5.60
2023-01-01T07:03:21.530Z,7.53
2023-01-01T07:04:23.931Z,6.72
2023-01-01T07:05:26.136Z,7.30
2023-01-01T07:06:31.044Z,7.93
2023-01-01T07:07:36.035Z,7.40
2023-01-01T07:08:38.528Z,6.15
2023-01-01T07:09:40.982Z,5.40
2023-01-01T07:10:43.220Z,5.20
2023-01-01T07:11:45.448Z,6.03
2023-01-01T07:12:47.657Z,9.93
2023-01-01T07:13:50.110Z,6.35
2023-01-01T07:14:52.342Z,9.98
2023-01-01T07:15:55.347Z,7.53
2023-01-01T07:16:57.597Z,6.18
2023-01-01T07:17:59.850Z,8.60
2023-01-01T07:19:02.077Z,6.18
2023-01-01T07:20:04.629Z,6.45
2023-01-01T07:21:26.545Z,5.40
2023-01-01T07:22:30.890Z,9.00
2023-01-01T07:23:35.151Z,6.25
2023-01-01T07:24:38.876Z,8.90
2023-01-01T07:25:42.264Z,8.18
2023-01-01T07:26:45.023Z,6.43
2023-01-01T07:27:47.265Z,9.32
2023-01-01T07:28:49.525Z,8.60
2023-01-01T07:29:51.763Z,8.98
2023-01-01T07:30:54.292Z,7.45
2023-01-01T07:31:56.894Z,8.98
2023-01-01T07:32:59.125Z,8.27
2023-01-01T07:34:01.442Z,7.82
2023-01-01T07:35:04.069Z,9.35
2023-01-01T07:36:06.808Z,6.07
2023-01-01T07:37:09.420Z,7.25
2023-01-01T07:38:12.615Z,9.60
2023-01-01T07:39:14.877Z,8.88
2023-01-01T07:40:17.144Z,6.68
2023-01-01T07:41:19.425Z,10.57
2023-01-01T07:42:21.682Z,5.10
2023-01-01T07:43:24.012Z,9.65
2023-01-01T07:44:26.259Z,6.82
2023-01-01T07:45:28.575Z,9.00
2023-01-01T07:46:30.925Z,7.82
2023-01-01T07:47:33.759Z,9.35
2023-01-01T07:48:39.980Z,6.20
2023-01-01T07:49:42.551Z,5.72
2023-01-01T07:50:44.832Z,7.30
2023-01-01T07:51:47.604Z,9.43
2023-01-01T07:52:49.867Z,6.45
2023-01-01T07:53:52.119Z,4.97
2023-01-01T07:54:54.438Z,5.80
2023-01-01T07:55:57.485Z,11.05
2023-01-01T07:57:00.019Z,10.38
2023-01-01T07:58:03.050Z,8.55
2023-01-01T07:59:05.559Z,11.10
2023-01-01T08:00:09.587Z,9.38
2023-01-01T08:01:16.110Z,8.85
2023-01-01T08:02:18.700Z,6.18
2023-01-01T08:03:21.127Z,8.73
2023-01-01T08:04:23.522Z,6.65
2023-01-01T08:05:27.139Z,5.82
2023-01-01T08:06:29.687Z,6.10
2023-01-01T08:07:32.175Z,6.95
2023-01-01T08:08:35.049Z,5.43
2023-01-01T08:09:37.225Z,4.15
2023-01-01T08:10:39.497Z,6.45
2023-01-01T08:11:41.728Z,7.55
2023-01-01T08:12:44.295Z,7.15
2023-01-01T08:13:46.571Z,6.00
2023-01-01T08:14:48.847Z,7.75
2023-01-01T08:15:51.766Z,7.38
2023-01-01T08:16:54.053Z,5.97
2023-01-01T08:18:01.775Z,8.55
2023-01-01T08:19:04.385Z,12.13
2023-01-01T08:20:07.823Z,10.43
2023-01-01T08:21:10.042Z,7.78
2023-01-01T08:22:12.299Z,5.85
2023-01-01T08:23:14.635Z,4.40
2023-01-01T08:24:16.949Z,4.95
2023-01-01T08:25:19.227Z,6.43
2023-01-01T08:26:33.000Z,7.57
2023-01-01T08:27:35.946Z,7.15
2023-01-01T08:28:38.156Z,5.97
2023-01-01T08:29:40.368Z,5.97
2023-01-01T08:30:42.798Z,5.18
2023-01-01T08:31:45.195Z,5.85
2023-01-01T08:32:48.668Z,6.18
2023-01-01T08:33:51.309Z,5.30
2023-01-01T08:34:53.551Z,5.88
2023-01-01T08:35:55.984Z,4.53
2023-01-01T08:36:59.754Z,5.55
2023-01-01T08:38:01.985Z,6.13
2023-01-01T08:39:04.334Z,10.82
2023-01-01T08:40:07.403Z,5.50
2023-01-01T08:41:09.991Z,3.80
2023-01-01T08:42:12.774Z,6.18
2023-01-01T08:43:15.110Z,9.40
2023-01-01T08:44:17.332Z,42.30
2023-01-01T08:45:19.621Z,22.45
2023-01-01T08:46:21.912Z,14.60
2023-01-01T08:47:26.172Z,18.58
2023-01-01T08:48:30.963Z,19.98
2023-01-01T08:49:33.469Z,9.57
2023-01-01T08:50:37.379Z,7.05
2023-01-01T08:51:39.613Z,9.38
2023-01-01T08:52:41.822Z,6.57
2023-01-01T08:53:50.547Z,4.63
2023-01-01T08:54:53.566Z,7.15
2023-01-01T08:56:00.957Z,7.00
2023-01-01T08:57:04.876Z,34.38
2023-01-01T08:58:07.613Z,13.60
2023-01-01T08:59:09.860Z,15.20
2023-01-01T09:00:13.567Z,13.80
2023-01-01T09:01:15.817Z,13.48
2023-01-01T09:02:19.572Z,11.35
2023-01-01T09:03:22.496Z,9.48
2023-01-01T09:04:24.826Z,8.60
2023-01-01T09:05:27.010Z,9.15
2023-01-01T09:06:29.189Z,14.00
2023-01-01T09:07:31.431Z,10.00
2023-01-01T09:08:33.793Z,11.10
2023-01-01T09:09:36.072Z,8.45
2023-01-01T09:10:38.657Z,9.73
2023-01-01T09:11:53.676Z,8.57
2023-01-01T09:12:56.060Z,6.78
2023-01-01T09:13:58.312Z,7.53
2023-01-01T09:15:00.642Z,6.80
2023-01-01T09:16:02.984Z,7.63
2023-01-01T09:17:06.883Z,10.80
2023-01-01T09:18:10.280Z,11.13
2023-01-01T09:19:12.675Z,7.75
2023-01-01T09:20:15.059Z,10.38
2023-01-01T09:21:17.520Z,8.25
2023-01-01T09:22:19.780Z,6.78
2023-01-01T09:23:23.273Z,7.85
2023-01-01T09:24:25.577Z,7.03
2023-01-01T09:25:27.822Z,12.05
2023-01-01T09:26:30.337Z,9.98
2023-01-01T09:27:33.184Z,10.23
2023-01-01T09:28:36.347Z,6.80
2023-01-01T09:29:38.605Z,9.00
2023-01-01T09:30:40.869Z,7.30
2023-01-01T09:31:43.198Z,6.13
2023-01-01T09:32:45.474Z,10.15
2023-01-01T09:33:47.740Z,11.55
2023-01-01T09:34:52.663Z,9.23
2023-01-01T09:35:54.990Z,9.82
2023-01-01T09:36:57.335Z,9.98
2023-01-01T09:37:59.661Z,9.98
2023-01-01T09:39:03.070Z,7.70
2023-01-01T09:40:05.704Z,5.78
2023-01-01T09:41:16.734Z,8.18
2023-01-01T09:42:32.448Z,6.55
2023-01-01T09:43:48.298Z,9.02
2023-01-01T09:45:23.877Z,7.63
2023-01-01T09:46:31.442Z,6.18
2023-01-01T09:47:41.255Z,7.57
2023-01-01T09:48:56.371Z,7.53
2023-01-01T09:50:07.040Z,5.45
2023-01-01T09:51:17.965Z,8.20
2023-01-01T09:52:21.249Z,6.43
2023-01-01T09:53:45.290Z,8.82
2023-01-01T09:55:00.851Z,7.47
2023-01-01T09:56:04.678Z,7.20
2023-01-01T09:57:16.316Z,8.32
2023-01-01T09:58:26.408Z,15.02
2023-01-01T09:59:28.728Z,12.27
2023-01-01T10:00:34.441Z,14.35
2023-01-01T10:01:48.602Z,9.40
2023-01-01T10:03:08.043Z,12.55
2023-01-01T10:04:28.486Z,15.73
2023-01-01T10:05:42.881Z,14.80
2023-01-01T10:06:55.308Z,17.85
2023-01-01T10:09:33.693Z,26.13
2023-01-01T10:10:41.599Z,18.50
2023-01-01T10:12:15.772Z,24.55
2023-01-01T10:13:36.463Z,14.63
2023-01-01T10:14:45.599Z,15.00
2023-01-01T10:16:01.781Z,17.33
2023-01-01T10:17:20.914Z,8.68
2023-01-01T10:18:27.832Z,10.68
2023-01-01T10:19:32.787Z,8.88
2023-01-01T10:20:46.623Z,9.73
2023-01-01T10:21:50.378Z,8.48
2023-01-01T10:23:03.596Z,8.52
2023-01-01T10:24:12.836Z,10.50
2023-01-01T10:25:19.728Z,8.85
2023-01-01T10:26:26.547Z,8.45
2023-01-01T10:27:43.509Z,9.80
2023-01-01T10:29:03.218Z,8.65
2023-01-01T10:30:17.947Z,8.43
2023-01-01T10:31:34.861Z,8.23
2023-01-01T10:32:39.015Z,10.05
2023-01-01T10:33:41.505Z,9.73
2023-01-01T10:34:43.766Z,11.93
2023-01-01T10:35:49.924Z,9.98
2023-01-01T10:36:58.215Z,6.90
2023-01-01T10:38:01.779Z,7.45
2023-01-01T10:39:04.184Z,7.10
2023-01-01T10:40:20.835Z,12.90
2023-01-01T10:41:23.129Z,10.45
2023-01-01T10:42:26.120Z,8.13
2023-01-01T10:43:28.353Z,8.07
2023-01-01T10:44:34.339Z,8.00
2023-01-01T10:45:46.806Z,13.23
2023-01-01T10:48:16.735Z,8.00
2023-01-01T10:49:18.935Z,10.13
2023-01-01T10:50:21.199Z,9.52
2023-01-01T10:51:24.826Z,13.13
2023-01-01T10:52:31.638Z,8.55
2023-01-01T10:53:43.859Z,9.55
2023-01-01T10:54:46.210Z,9.85
2023-01-01T10:55:50.835Z,5.40
2023-01-01T10:56:53.064Z,11.90
2023-01-01T10:57:55.381Z,8.20
2023-01-01T10:59:00.717Z,10.75
2023-01-01T11:00:18.904Z,13.45
2023-01-01T11:01:29.669Z,8.63
2023-01-01T11:02:32.734Z,8.43
2023-01-01T11:03:35.563Z,13.13
2023-01-01T11:04:37.836Z,9.35
2023-01-01T11:05:40.093Z,8.45
2023-01-01T11:06:45.626Z,10.60
2023-01-01T11:07:48.178Z,14.00
2023-01-01T11:08:53.357Z,7.53
2023-01-01T11:10:04.033Z,7.40
2023-01-01T11:11:06.958Z,7.65
2023-01-01T11:12:46.134Z,9.15
2023-01-01T11:13:41.060Z,12.63
2023-01-01T11:14:57.888Z,7.95
2023-01-01T11:16:00.750Z,9.73
2023-01-01T11:17:03.025Z,8.00
2023-01-01T11:18:15.369Z,7.07
2023-01-01T11:19:30.336Z,7.40
2023-01-01T11:20:33.501Z,9.40
2023-01-01T11:21:35.907Z,8.68
2023-01-01T11:22:42.139Z,9.75
2023-01-01T11:23:44.419Z,10.27
2023-01-01T11:25:00.888Z,10.35
2023-01-01T11:26:08.791Z,13.40
2023-01-01T11:27:20.468Z,10.98
2023-01-01T11:28:22.786Z,9.90
2023-01-01T11:29:28.127Z,13.15
2023-01-01T11:30:30.507Z,11.38
2023-01-01T11:31:40.049Z,8.55
2023-01-01T11:32:42.320Z,10.02
2023-01-01T11:33:53.089Z,10.90
2023-01-01T11:35:01.634Z,11.55
2023-01-01T11:36:06.290Z,15.05
2023-01-01T11:37:14.134Z,8.57
2023-01-01T11:38:25.876Z,13.25
2023-01-01T11:39:37.157Z,10.00
2023-01-01T11:40:46.805Z,11.55
2023-01-01T11:41:51.948Z,8.93
2023-01-01T11:42:59.445Z,9.43
2023-01-01T11:44:01.776Z,9.43
2023-01-01T11:45:25.952Z,9.55
2023-01-01T11:46:28.289Z,7.53
2023-01-01T11:47:39.705Z,12.18
2023-01-01T11:48:43.689Z,7.53
2023-01-01T11:49:52.875Z,7.90
2023-01-01T11:51:01.638Z,11.25
2023-01-01T11:52:35.770Z,13.75
2023-01-01T11:53:41.548Z,7.57
2023-01-01T11:54:45.437Z,9.15
2023-01-01T11:55:51.951Z,8.70
2023-01-01T11:57:00.529Z,9.50
2023-01-01T11:58:02.658Z,8.13
2023-01-01T11:59:16.223Z,8.05
2023-01-01T12:00:24.966Z,9.82
2023-01-01T12:01:46.946Z,9.00
2023-01-01T12:02:58.315Z,7.27
2023-01-01T12:04:13.399Z,13.90
2023-01-01T12:05:24.901Z,10.23
2023-01-01T12:06:36.960Z,6.47
2023-01-01T12:07:43.087Z,7.82
2023-01-01T12:08:54.228Z,9.57
2023-01-01T12:10:04.983Z,8.55
2023-01-01T12:11:44.638Z,8.63
2023-01-01T12:13:13.320Z,11.48
2023-01-01T12:14:22.818Z,10.38
2023-01-01T12:15:53.288Z,8.98
2023-01-01T12:17:05.392Z,14.00
2023-01-01T12:18:32.266Z,8.07
2023-01-01T12:19:48.139Z,6.68
2023-01-01T12:21:05.322Z,7.05
2023-01-01T12:22:15.981Z,8.23
2023-01-01T12:23:19.761Z,9.43
2023-01-01T12:24:22.308Z,12.38
2023-01-01T12:25:33.660Z,10.20
2023-01-01T12:27:10.480Z,8.73
2023-01-01T12:28:52.248Z,24.88
2023-01-01T12:30:09.688Z,8.05
2023-01-01T12:31:21.041Z,9.10
2023-01-01T12:32:48.955Z,9.32
2023-01-01T12:33:56.901Z,12.43
2023-01-01T12:35:24.358Z,9.43
2023-01-01T12:36:41.418Z,13.07
2023-01-01T12:38:01.718Z,15.15
2023-01-01T12:39:42.139Z,8.45
2023-01-01T12:41:17.857Z,8.73
2023-01-01T12:42:57.372Z,10.55
2023-01-01T12:44:28.236Z,8.27
2023-01-01T12:46:01.149Z,9.45
2023-01-01T12:47:35.172Z,7.70
2023-01-01T12:48:51.581Z,9.93
2023-01-01T12:50:07.616Z,8.68
2023-01-01T12:51:51.045Z,9.93
2023-01-01T12:53:22.397Z,13.30
2023-01-01T12:54:51.068Z,7.60
2023-01-01T12:56:10.297Z,13.95
2023-01-01T12:57:28.635Z,14.40
2023-01-01T12:58:42.181Z,10.90
2023-01-01T12:59:50.713Z,8.57
2023-01-01T13:01:06.378Z,8.90
2023-01-01T13:02:20.702Z,6.38
2023-01-01T13:03:33.607Z,12.40
2023-01-01T13:04:36.616Z,11.55
2023-01-01T13:05:43.772Z,11.75
2023-01-01T13:06:50.688Z,8.98
2023-01-01T13:07:59.714Z,9.85
2023-01-01T13:09:07.769Z,6.72
2023-01-01T13:10:34.165Z,7.22
2023-01-01T13:11:44.527Z,6.22
2023-01-01T13:12:47.916Z,7.50
2023-01-01T13:13:50.154Z,10.88
2023-01-01T13:14:52.439Z,9.88
2023-01-01T13:15:56.604Z,6.65
2023-01-01T13:16:59.020Z,11.45
2023-01-01T13:18:05.675Z,9.98
2023-01-01T13:19:25.673Z,8.23
2023-01-01T13:20:28.704Z,8.82
2023-01-01T13:21:32.694Z,11.07
2023-01-01T13:22:34.884Z,9.48
2023-01-01T13:23:40.239Z,9.40
2023-01-01T13:24:42.448Z,8.88
2023-01-01T13:25:45.733Z,10.95
2023-01-01T13:26:49.949Z,11.65
2023-01-01T13:27:58.064Z,10.48
2023-01-01T13:29:05.276Z,10.55
2023-01-01T13:30:36.876Z,10.57
2023-01-01T13:31:39.443Z,10.98
2023-01-01T13:33:17.605Z,10.00
2023-01-01T13:34:58.629Z,15.70
2023-01-01T13:36:11.215Z,11.57
2023-01-01T13:37:27.731Z,5.50
2023-01-01T13:38:49.418Z,8.10
2023-01-01T13:40:05.590Z,11.70
2023-01-01T13:41:36.877Z,12.45
2023-01-01T13:42:59.214Z,11.60
2023-01-01T13:44:04.589Z,8.80
2023-01-01T13:47:27.340Z,7.75
2023-01-01T13:48:50.955Z,12.75
2023-01-01T13:50:12.031Z,10.38
2023-01-01T13:52:03.395Z,9.18
2023-01-01T13:53:29.789Z,8.05
2023-01-01T13:55:09.741Z,8.85
2023-01-01T13:56:35.336Z,6.40
2023-01-01T13:57:43.431Z,8.88
2023-01-01T13:59:06.162Z,10.82
2023-01-01T14:00:17.682Z,8.23
2023-01-01T14:01:35.768Z,12.02
2023-01-01T14:02:46.295Z,12.98
2023-01-01T14:03:53.789Z,9.20
2023-01-01T14:05:17.169Z,8.30
2023-01-01T14:06:32.479Z,6.07
2023-01-01T14:07:53.097Z,9.30
2023-01-01T14:09:05.871Z,7.63
2023-01-01T14:11:21.970Z,7.18
2023-01-01T14:12:24.450Z,6.88
2023-01-01T14:13:38.872Z,8.20
2023-01-01T14:14:42.998Z,7.18
2023-01-01T14:15:53.069Z,8.52
2023-01-01T14:16:58.770Z,8.52
2023-01-01T14:18:04.727Z,10.57
2023-01-01T14:19:14.536Z,7.55
2023-01-01T14:20:21.646Z,8.13
2023-01-01T14:21:27.190Z,9.57
2023-01-01T14:22:29.851Z,6.57
2023-01-01T14:23:34.131Z,11.88
2023-01-01T14:24:43.582Z,7.30
2023-01-01T14:25:46.583Z,7.60
2023-01-01T14:26:50.068Z,7.80
2023-01-01T14:27:55.159Z,8.05
2023-01-01T14:28:59.086Z,12.88
2023-01-01T14:30:01.432Z,10.10
2023-01-01T14:31:11.339Z,9.60
2023-01-01T14:32:19.885Z,9.80
2023-01-01T14:33:30.314Z,9.13
2023-01-01T14:34:35.058Z,8.73
2023-01-01T14:35:37.356Z,6.78
2023-01-01T14:36:52.531Z,6.90
2023-01-01T14:37:55.749Z,11.07
2023-01-01T14:39:02.919Z,10.23
2023-01-01T14:40:07.937Z,12.48
2023-01-01T14:41:28.952Z,9.43
2023-01-01T14:42:32.219Z,15.32
2023-01-01T14:43:38.930Z,9.35
2023-01-01T14:44:46.348Z,7.50
2023-01-01T14:45:49.659Z,9.52
2023-01-01T14:46:53.620Z,8.23
2023-01-01T14:47:56.871Z,6.93
2023-01-01T14:49:08.524Z,8.95
2023-01-01T14:50:30.741Z,13.20
2023-01-01T14:51:33.804Z,8.30
2023-01-01T14:52:37.515Z,14.88
2023-01-01T14:53:42.741Z,23.50
2023-01-01T14:54:46.298Z,19.25
2023-01-01T14:55:49.677Z,14.18
2023-01-01T14:56:52.275Z,12.10
2023-01-01T14:58:00.519Z,15.70
2023-01-01T14:59:25.081Z,13.90
2023-01-01T15:00:30.910Z,13.23
2023-01-01T15:01:33.385Z,17.23
2023-01-01T15:02:39.029Z,17.73
2023-01-01T15:03:41.587Z,16.52
2023-01-01T15:04:43.968Z,17.20
2023-01-01T15:05:58.676Z,10.43
2023-01-01T15:07:01.468Z,13.05
2023-01-01T15:08:06.433Z,15.48
2023-01-01T15:09:15.851Z,13.35
2023-01-01T15:10:18.045Z,9.27
2023-01-01T15:11:28.268Z,10.25
2023-01-01T15:12:34.370Z,14.30
2023-01-01T15:13:36.707Z,13.63
2023-01-01T15:14:42.436Z,10.60
2023-01-01T15:15:47.246Z,16.77
2023-01-01T15:17:12.808Z,14.13
2023-01-01T15:18:46.432Z,13.43
2023-01-01T15:20:20.793Z,18.63
2023-01-01T15:21:31.887Z,12.35
2023-01-01T15:22:37.192Z,19.45
2023-01-01T15:23:44.486Z,20.15